Track Шерюков Михаил

Time Latitude Longitude Accuracy (66% radius in meters) Altitude (meters) Speed (km/hour) Bearing (degrees) Battery (%) GPS flag
11:28:48 57.204356 60.120909 39.664001464844 308 0.61000001430511 337.20001220703 50 1 delete
11:25:14 57.204528 60.120875 9.6480007171631 330 1.0800000429153 112.40000152588 50 1 delete
11:24:42 57.204600 60.120775 10.720000267029 331 1.4500000476837 44 50 1 delete
11:24:37 57.204516 60.120676 10.720000267029 331 3.5699999332428 62.400001525879 50 1 delete
11:24:33 57.204477 60.120469 3.2160000801086 331 2.8299999237061 83.400001525879 50 1 delete
11:24:30 57.204487 60.120297 3.2160000801086 331 3.4000000953674 91.300003051758 50 1 delete
11:24:27 57.204499 60.120122 4.2880001068115 330 2.7799999713898 79.300003051758 50 1 delete
11:24:23 57.204469 60.119916 4.2880001068115 328 3.1199998855591 60 50 1 delete
11:24:20 57.204426 60.119765 4.2880001068115 326 2.8399999141693 50.599998474121 50 1 delete
11:24:17 57.204364 60.119623 4.2880001068115 326 3.5199999809265 50.299999237061 50 1 delete
11:24:13 57.204289 60.119439 4.2880001068115 324 2.75 50.700000762939 50 1 delete
11:24:09 57.204228 60.119254 5.3600001335144 323 2.6099998950958 50.099998474121 50 1 delete
11:24:05 57.204181 60.119107 6.4320001602173 322 2.2400000095367 39.900001525879 50 1 delete
11:24:00 57.204101 60.118986 6.4320001602173 320 2.8499999046326 28.299999237061 50 1 delete
11:23:56 57.204007 60.118882 6.4320001602173 319 2.6199998855591 31.700000762939 50 1 delete
11:23:51 57.203926 60.118766 5.3600001335144 318 2.1199998855591 51.099998474121 50 1 delete
11:23:42 57.203863 60.118609 3.2160000801086 323 1.2799999713898 74.699996948242 50 1 delete
11:23:30 57.203897 60.118438 9.6480007171631 326 1.3899999856949 104.40000152588 50 1 delete
11:23:20 57.203929 60.118280 9.6480007171631 326 0.98000001907349 125.09999847412 50 1 delete
11:23:08 57.203960 60.118107 10.720000267029 324 1.8400000333786 163.69999694824 50 1 delete
11:23:03 57.204053 60.118073 10.720000267029 322 2.8399999141693 166 50 1 delete
11:22:59 57.204153 60.118035 10.720000267029 322 2.9000000953674 172.89999389648 50 1 delete
11:22:55 57.204263 60.118022 10.720000267029 323 3.0299999713898 165.10000610352 50 1 delete
11:22:51 57.204377 60.117981 10.720000267029 320 3.5799999237061 184.5 50 1 delete
11:22:48 57.204488 60.118007 10.720000267029 322 3.7699999809265 184.5 50 1 delete
11:22:45 57.204602 60.118039 10.720000267029 322 4.1999998092651 184.39999389648 50 1 delete
11:22:42 57.204737 60.118100 10.720000267029 325 3.6300001144409 194.39999389648 50 1 delete
11:22:39 57.204834 60.118165 10.720000267029 324 3.5499999523163 201.19999694824 50 1 delete
11:22:35 57.204954 60.118248 10.720000267029 324 2.75 190.10000610352 50 1 delete
11:22:31 57.205054 60.118307 10.720000267029 325 2.6900000572205 188.5 50 1 delete
11:22:27 57.205160 60.118361 10.720000267029 324 3.7200000286102 193.19999694824 50 1 delete
11:22:24 57.205258 60.118389 10.720000267029 321 3.5199999809265 179 50 1 delete
11:22:21 57.205354 60.118388 10.720000267029 321 3.0799999237061 169.39999389648 50 1 delete
11:22:17 57.205470 60.118359 10.720000267029 321 2.4000000953674 163.80000305176 50 1 delete
11:22:13 57.205561 60.118342 10.720000267029 324 2.5099999904633 164.30000305176 50 1 delete
11:22:09 57.205662 60.118300 10.720000267029 324 2.5299999713898 155.19999694824 50 1 delete
11:22:02 57.205751 60.118194 9.6480007171631 323 1.5099999904633 108.5 50 1 delete
11:21:52 57.205818 60.118052 10.720000267029 325 0.9200000166893 131.39999389648 50 1 delete
11:21:43 57.205888 60.117935 10.720000267029 324 1.7599999904633 124.59999847412 50 1 delete
11:21:36 57.205957 60.117829 10.720000267029 323 2.0799999237061 149.19999694824 50 1 delete
11:21:32 57.206044 60.117749 10.720000267029 326 2.9700000286102 151.10000610352 50 1 delete
11:21:28 57.206125 60.117668 4.2880001068115 329 1.75 131.5 50 1 delete
11:21:23 57.206197 60.117556 3.2160000801086 330 2.1800000667572 121.09999847412 50 1 delete
11:21:18 57.206281 60.117471 3.2160000801086 330 2.1600000858307 146.80000305176 50 1 delete
11:21:00 57.206365 60.117382 4.2880001068115 328 1.9700000286102 141.10000610352 50 1 delete
11:20:48 57.206438 60.117273 3.2160000801086 331 0 0 50 1 delete
11:16:20 57.206517 60.117193 10.720000267029 326 0 0 51 1 delete
11:15:57 57.206607 60.117163 9.6480007171631 323 1.7799999713898 150.5 51 1 delete
11:15:30 57.206638 60.117002 9.6480007171631 326 1.1599999666214 77.699996948242 51 1 delete
11:15:23 57.206585 60.116867 9.6480007171631 331 0.60000002384186 65.300003051758 51 1 delete